Wetterdaten: Woche 05.04.10 - 11.04.10 (KW14)
Datum Zeit Temperatur Luftfeuchte Luftdruck Niederschlag Windrichtung Wind
05.04.2010 00:00 4,8 C 79 % 1019,4 hPa 0,0 l/m SW 4,1 km/h (1 Bft)
05.04.2010 01:00 4,7 C 77 % 1019,9 hPa 0,0 l/m W 6,1 km/h (2 Bft)
05.04.2010 02:00 4,6 C 76 % 1020,6 hPa 0,0 l/m W 8,0 km/h (2 Bft)
05.04.2010 03:00 4,0 C 78 % 1021,4 hPa 0,0 l/m W-NW 5,5 km/h (1 Bft)
05.04.2010 04:00 3,5 C 84 % 1021,9 hPa 0,0 l/m W-NW 3,5 km/h (1 Bft)
05.04.2010 05:00 4,0 C 82 % 1022,5 hPa 0,0 l/m W-NW 9,8 km/h (2 Bft)
05.04.2010 06:00 4,1 C 83 % 1023,2 hPa 0,0 l/m W 6,8 km/h (2 Bft)
05.04.2010 07:00 3,9 C 86 % 1024,0 hPa 0,0 l/m W 8,0 km/h (2 Bft)
05.04.2010 08:00 4,3 C 86 % 1024,9 hPa 0,0 l/m W-NW 8,1 km/h (2 Bft)
05.04.2010 09:00 4,8 C 85 % 1025,7 hPa 0,0 l/m W-NW 11,0 km/h (2 Bft)
05.04.2010 10:00 6,3 C 77 % 1026,2 hPa 0,0 l/m W 12,9 km/h (3 Bft)
05.04.2010 11:00 7,1 C 70 % 1026,6 hPa 0,0 l/m W-NW 14,6 km/h (3 Bft)
05.04.2010 12:00 8,4 C 65 % 1027,1 hPa 0,0 l/m W 20,2 km/h (4 Bft)
05.04.2010 13:00 9,0 C 56 % 1027,0 hPa 0,0 l/m W 16,2 km/h (3 Bft)
05.04.2010 14:00 8,4 C 56 % 1027,2 hPa 0,0 l/m W-NW 13,6 km/h (3 Bft)
05.04.2010 15:00 8,3 C 57 % 1027,1 hPa 0,0 l/m W 11,5 km/h (2 Bft)
05.04.2010 16:00 9,5 C 54 % 1026,9 hPa 0,0 l/m W 13,7 km/h (3 Bft)
05.04.2010 17:00 8,7 C 57 % 1027,1 hPa 0,0 l/m W-SW 15,4 km/h (3 Bft)
05.04.2010 18:00 8,6 C 53 % 1027,3 hPa 0,0 l/m W-SW 10,6 km/h (2 Bft)
05.04.2010 19:00 8,0 C 53 % 1027,5 hPa 0,0 l/m W-NW 7,5 km/h (2 Bft)
05.04.2010 20:00 5,9 C 64 % 1027,8 hPa 0,0 l/m N 2,9 km/h (1 Bft)
05.04.2010 21:00 4,3 C 73 % 1028,1 hPa 0,0 l/m SW 2,3 km/h (1 Bft)
05.04.2010 22:00 3,2 C 78 % 1028,0 hPa 0,0 l/m SW 0,9 km/h (0 Bft)
05.04.2010 23:00 1,7 C 85 % 1027,8 hPa 0,0 l/m N 0,1 km/h (0 Bft)
06.04.2010 00:00 0,8 C 89 % 1027,6 hPa 0,0 l/m N 0,0 km/h (0 Bft)
06.04.2010 01:00 0,3 C 91 % 1027,4 hPa 0,0 l/m N 0,0 km/h (0 Bft)
06.04.2010 02:00 -0,2 C 92 % 1027,2 hPa 0,0 l/m N 0,0 km/h (0 Bft)
06.04.2010 03:00 -0,6 C 92 % 1026,9 hPa 0,0 l/m N 0,0 km/h (0 Bft)
06.04.2010 04:00 -0,9 C 93 % 1027,0 hPa 0,0 l/m N 0,0 km/h (0 Bft)
06.04.2010 05:00 -1,3 C 93 % 1027,1 hPa 0,0 l/m N 0,0 km/h (0 Bft)
06.04.2010 06:00 -1,5 C 94 % 1027,0 hPa 0,0 l/m N 0,0 km/h (0 Bft)
06.04.2010 07:00 -1,1 C 94 % 1027,2 hPa 0,0 l/m N 0,1 km/h (0 Bft)
06.04.2010 08:00 1,1 C 90 % 1027,2 hPa 0,0 l/m S-SW 2,0 km/h (1 Bft)
06.04.2010 09:00 3,9 C 80 % 1026,9 hPa 0,0 l/m O-SO 3,9 km/h (1 Bft)
06.04.2010 10:00 7,2 C 65 % 1026,4 hPa 0,0 l/m O 9,4 km/h (2 Bft)
06.04.2010 11:00 9,8 C 54 % 1025,6 hPa 0,0 l/m O-NO 19,2 km/h (3 Bft)
06.04.2010 12:00 11,3 C 50 % 1024,7 hPa 0,0 l/m NO 17,4 km/h (3 Bft)
06.04.2010 13:00 12,5 C 46 % 1023,8 hPa 0,0 l/m O 19,0 km/h (3 Bft)
06.04.2010 14:00 13,6 C 40 % 1023,0 hPa 0,0 l/m O 16,9 km/h (3 Bft)
06.04.2010 15:00 14,5 C 37 % 1022,3 hPa 0,0 l/m O-SO 15,3 km/h (3 Bft)
06.04.2010 16:00 14,9 C 37 % 1021,6 hPa 0,0 l/m O 15,7 km/h (3 Bft)
06.04.2010 17:00 15,0 C 36 % 1020,6 hPa 0,0 l/m O-SO 18,2 km/h (3 Bft)
06.04.2010 18:00 14,5 C 38 % 1020,1 hPa 0,0 l/m O 16,4 km/h (3 Bft)
06.04.2010 19:00 13,2 C 42 % 1019,8 hPa 0,0 l/m O-SO 9,9 km/h (2 Bft)
06.04.2010 20:00 10,6 C 52 % 1019,9 hPa 0,0 l/m NO 4,5 km/h (1 Bft)
06.04.2010 21:00 8,9 C 58 % 1019,7 hPa 0,0 l/m O-NO 5,6 km/h (1 Bft)
06.04.2010 22:00 7,2 C 66 % 1019,6 hPa 0,0 l/m N-NO 5,1 km/h (1 Bft)
06.04.2010 23:00 6,1 C 70 % 1019,5 hPa 0,0 l/m N-NO 5,3 km/h (1 Bft)
07.04.2010 00:00 5,1 C 74 % 1019,4 hPa 0,0 l/m N-NO 5,5 km/h (1 Bft)
07.04.2010 01:00 4,2 C 77 % 1019,4 hPa 0,0 l/m N-NO 4,7 km/h (1 Bft)
07.04.2010 02:00 3,5 C 80 % 1019,1 hPa 0,0 l/m N 4,9 km/h (1 Bft)
07.04.2010 03:00 2,9 C 83 % 1018,7 hPa 0,0 l/m N 3,7 km/h (1 Bft)
07.04.2010 04:00 2,3 C 85 % 1018,5 hPa 0,0 l/m N 4,3 km/h (1 Bft)
07.04.2010 05:00 2,0 C 86 % 1018,5 hPa 0,0 l/m N 4,5 km/h (1 Bft)
07.04.2010 06:00 1,5 C 88 % 1018,6 hPa 0,0 l/m N 4,1 km/h (1 Bft)
07.04.2010 07:00 1,7 C 88 % 1019,0 hPa 0,0 l/m N 2,8 km/h (1 Bft)
07.04.2010 08:00 3,6 C 82 % 1019,2 hPa 0,0 l/m NO 5,9 km/h (2 Bft)
07.04.2010 09:00 6,1 C 75 % 1019,1 hPa 0,0 l/m NO 5,6 km/h (1 Bft)
07.04.2010 10:00 9,3 C 63 % 1019,0 hPa 0,0 l/m NO 5,3 km/h (1 Bft)
07.04.2010 11:00 12,1 C 54 % 1018,7 hPa 0,0 l/m O-NO 5,2 km/h (1 Bft)
07.04.2010 12:00 14,7 C 45 % 1018,1 hPa 0,0 l/m O-NO 6,7 km/h (2 Bft)
07.04.2010 13:00 16,5 C 41 % 1017,5 hPa 0,0 l/m W-SW 7,8 km/h (2 Bft)
07.04.2010 14:00 18,0 C 37 % 1016,9 hPa 0,0 l/m NO 8,0 km/h (2 Bft)
07.04.2010 15:00 19,2 C 34 % 1016,4 hPa 0,0 l/m N-NO 8,7 km/h (2 Bft)
07.04.2010 16:00 19,8 C 33 % 1016,1 hPa 0,0 l/m NO 11,3 km/h (2 Bft)
07.04.2010 17:00 19,6 C 31 % 1015,8 hPa 0,0 l/m O 13,4 km/h (3 Bft)
07.04.2010 18:00 18,8 C 33 % 1015,6 hPa 0,0 l/m O 12,4 km/h (3 Bft)
07.04.2010 19:00 17,1 C 43 % 1015,8 hPa 0,0 l/m O-NO 8,4 km/h (2 Bft)
07.04.2010 20:00 13,9 C 55 % 1016,4 hPa 0,0 l/m O-NO 4,0 km/h (1 Bft)
07.04.2010 21:00 11,6 C 62 % 1016,8 hPa 0,0 l/m O-NO 3,1 km/h (1 Bft)
07.04.2010 22:00 9,7 C 67 % 1017,2 hPa 0,0 l/m NW 4,4 km/h (1 Bft)
07.04.2010 23:00 8,7 C 72 % 1017,4 hPa 0,0 l/m N-NW 5,1 km/h (1 Bft)
08.04.2010 00:00 7,8 C 74 % 1017,4 hPa 0,0 l/m N-NW 5,6 km/h (1 Bft)
08.04.2010 01:00 7,6 C 74 % 1017,5 hPa 0,0 l/m N-NW 5,3 km/h (1 Bft)
08.04.2010 02:00 6,4 C 79 % 1017,4 hPa 0,0 l/m N 1,2 km/h (1 Bft)
08.04.2010 03:00 5,2 C 84 % 1017,5 hPa 0,0 l/m N 0,0 km/h (0 Bft)
08.04.2010 04:00 4,2 C 86 % 1017,8 hPa 0,0 l/m N 0,0 km/h (0 Bft)
08.04.2010 05:00 3,3 C 89 % 1018,3 hPa 0,0 l/m N 0,0 km/h (0 Bft)
08.04.2010 06:00 2,9 C 91 % 1018,8 hPa 0,0 l/m N 0,0 km/h (0 Bft)
08.04.2010 07:00 3,5 C 90 % 1019,4 hPa 0,0 l/m N 0,0 km/h (0 Bft)
08.04.2010 08:00 6,0 C 81 % 1020,1 hPa 0,0 l/m N 0,5 km/h (0 Bft)
08.04.2010 09:00 8,6 C 64 % 1020,4 hPa 0,0 l/m N-NW 3,5 km/h (1 Bft)
08.04.2010 10:00 10,2 C 64 % 1020,7 hPa 0,0 l/m S 6,3 km/h (2 Bft)
08.04.2010 11:00 12,5 C 61 % 1020,8 hPa 0,0 l/m S 6,5 km/h (2 Bft)
08.04.2010 12:00 14,3 C 56 % 1020,8 hPa 0,0 l/m SW 8,4 km/h (2 Bft)
08.04.2010 13:00 15,3 C 52 % 1020,7 hPa 0,0 l/m SO 6,7 km/h (2 Bft)
08.04.2010 14:00 16,4 C 47 % 1020,5 hPa 0,0 l/m N-NO 9,3 km/h (2 Bft)
08.04.2010 15:00 17,6 C 36 % 1020,4 hPa 0,0 l/m N-NW 9,4 km/h (2 Bft)
08.04.2010 16:00 18,2 C 35 % 1020,2 hPa 0,0 l/m O-NO 12,4 km/h (3 Bft)
08.04.2010 17:00 17,7 C 41 % 1020,3 hPa 0,0 l/m N-NO 14,5 km/h (3 Bft)
08.04.2010 18:00 15,7 C 56 % 1021,1 hPa 0,0 l/m N-NO 19,7 km/h (3 Bft)
08.04.2010 19:00 13,4 C 66 % 1022,0 hPa 0,0 l/m N-NO 12,5 km/h (3 Bft)
08.04.2010 20:00 11,5 C 67 % 1022,9 hPa 0,0 l/m N-NW 7,8 km/h (2 Bft)
08.04.2010 21:00 9,8 C 70 % 1023,7 hPa 0,0 l/m N-NW 4,8 km/h (1 Bft)
08.04.2010 22:00 9,1 C 74 % 1024,2 hPa 0,0 l/m N-NW 4,8 km/h (1 Bft)
08.04.2010 23:00 9,0 C 80 % 1024,7 hPa 0,0 l/m N-NW 3,7 km/h (1 Bft)
09.04.2010 00:00 8,1 C 82 % 1025,1 hPa 0,0 l/m N-NW 6,3 km/h (2 Bft)
09.04.2010 01:00 7,5 C 83 % 1025,2 hPa 0,0 l/m N-NW 6,0 km/h (2 Bft)
09.04.2010 02:00 6,9 C 84 % 1025,3 hPa 0,0 l/m N-NW 5,5 km/h (1 Bft)
09.04.2010 03:00 6,4 C 86 % 1025,3 hPa 0,0 l/m N-NW 5,5 km/h (1 Bft)
09.04.2010 04:00 6,0 C 88 % 1025,7 hPa 0,0 l/m N-NW 5,6 km/h (1 Bft)
09.04.2010 05:00 5,6 C 90 % 1026,0 hPa 0,0 l/m N-NW 5,3 km/h (1 Bft)
09.04.2010 06:00 5,1 C 93 % 1026,2 hPa 0,0 l/m N-NW 6,0 km/h (2 Bft)
09.04.2010 07:00 5,4 C 93 % 1026,6 hPa 0,0 l/m N-NW 7,2 km/h (2 Bft)
09.04.2010 08:00 6,4 C 91 % 1027,1 hPa 0,0 l/m N-NW 7,5 km/h (2 Bft)
09.04.2010 09:00 8,5 C 86 % 1027,6 hPa 0,0 l/m NO 11,7 km/h (2 Bft)
09.04.2010 10:00 9,3 C 82 % 1027,9 hPa 0,0 l/m O-NO 20,2 km/h (4 Bft)
09.04.2010 11:00 9,6 C 81 % 1028,0 hPa 0,0 l/m N-NO 14,2 km/h (3 Bft)
09.04.2010 12:00 10,1 C 78 % 1028,1 hPa 0,0 l/m N-NO 13,8 km/h (3 Bft)
09.04.2010 13:00 11,8 C 71 % 1027,6 hPa 0,0 l/m O-NO 16,4 km/h (3 Bft)
09.04.2010 14:00 12,8 C 68 % 1027,2 hPa 0,0 l/m N-NO 20,6 km/h (4 Bft)
09.04.2010 15:00 13,0 C 66 % 1027,0 hPa 0,0 l/m NO 21,2 km/h (4 Bft)
09.04.2010 16:00 13,0 C 64 % 1026,7 hPa 0,0 l/m N 19,8 km/h (4 Bft)
09.04.2010 17:00 12,2 C 67 % 1027,0 hPa 0,0 l/m O-NO 17,4 km/h (3 Bft)
09.04.2010 18:00 11,5 C 69 % 1027,3 hPa 0,0 l/m NO 12,5 km/h (3 Bft)
09.04.2010 19:00 11,2 C 70 % 1027,6 hPa 0,0 l/m NO 11,3 km/h (2 Bft)
09.04.2010 20:00 10,6 C 73 % 1028,0 hPa 0,0 l/m N-NO 9,5 km/h (2 Bft)
09.04.2010 21:00 8,6 C 79 % 1028,5 hPa 0,0 l/m N 4,1 km/h (1 Bft)
09.04.2010 22:00 6,9 C 85 % 1028,8 hPa 0,0 l/m N 1,5 km/h (1 Bft)
09.04.2010 23:00 5,8 C 88 % 1028,7 hPa 0,0 l/m N 1,1 km/h (0 Bft)
10.04.2010 00:00 5,1 C 90 % 1028,5 hPa 0,0 l/m N 1,1 km/h (0 Bft)
10.04.2010 01:00 4,8 C 91 % 1028,5 hPa 0,0 l/m N-NW 5,9 km/h (2 Bft)
10.04.2010 02:00 4,4 C 89 % 1028,3 hPa 0,0 l/m N-NW 5,5 km/h (1 Bft)
10.04.2010 03:00 4,2 C 88 % 1027,8 hPa 0,0 l/m N 4,3 km/h (1 Bft)
10.04.2010 04:00 3,6 C 90 % 1027,5 hPa 0,0 l/m N 3,7 km/h (1 Bft)
10.04.2010 05:00 4,5 C 86 % 1027,3 hPa 0,0 l/m N 5,1 km/h (1 Bft)
10.04.2010 06:00 4,5 C 85 % 1027,2 hPa 0,0 l/m N 3,9 km/h (1 Bft)
10.04.2010 07:00 4,9 C 84 % 1027,2 hPa 0,0 l/m N 4,4 km/h (1 Bft)
10.04.2010 08:00 6,0 C 81 % 1027,2 hPa 0,0 l/m N-NO 5,9 km/h (2 Bft)
10.04.2010 09:00 7,6 C 74 % 1026,9 hPa 0,0 l/m N-NO 7,5 km/h (2 Bft)
10.04.2010 10:00 10,0 C 59 % 1026,4 hPa 0,0 l/m O-NO 9,4 km/h (2 Bft)
10.04.2010 11:00 11,5 C 47 % 1026,0 hPa 0,0 l/m O 13,4 km/h (3 Bft)
10.04.2010 12:00 11,7 C 48 % 1025,5 hPa 0,0 l/m NW 12,5 km/h (3 Bft)
10.04.2010 13:00 12,1 C 49 % 1024,9 hPa 0,0 l/m N 11,7 km/h (2 Bft)
10.04.2010 14:00 12,4 C 48 % 1024,1 hPa 0,0 l/m N 10,1 km/h (2 Bft)
10.04.2010 15:00 11,8 C 51 % 1023,6 hPa 0,0 l/m NO 9,5 km/h (2 Bft)
10.04.2010 16:00 11,9 C 49 % 1023,1 hPa 0,0 l/m N-NO 15,0 km/h (3 Bft)
10.04.2010 17:00 12,0 C 49 % 1022,5 hPa 0,0 l/m N-NO 14,1 km/h (3 Bft)
10.04.2010 18:00 11,1 C 53 % 1022,2 hPa 0,0 l/m N 13,6 km/h (3 Bft)
10.04.2010 19:00 10,2 C 56 % 1022,1 hPa 0,0 l/m N-NO 12,0 km/h (2 Bft)
10.04.2010 20:00 9,1 C 60 % 1022,2 hPa 0,0 l/m N-NO 8,3 km/h (2 Bft)
10.04.2010 21:00 8,0 C 59 % 1022,6 hPa 0,0 l/m NO 15,7 km/h (3 Bft)
10.04.2010 22:00 6,2 C 60 % 1022,9 hPa 0,0 l/m NO 22,3 km/h (4 Bft)
10.04.2010 23:00 4,6 C 63 % 1022,7 hPa 0,0 l/m NO 10,1 km/h (2 Bft)
11.04.2010 00:00 3,4 C 69 % 1022,5 hPa 0,0 l/m NO 6,9 km/h (2 Bft)
11.04.2010 01:00 2,4 C 72 % 1021,9 hPa 0,0 l/m N-NO 6,0 km/h (2 Bft)
11.04.2010 02:00 1,5 C 75 % 1021,3 hPa 0,0 l/m N-NO 5,1 km/h (1 Bft)
11.04.2010 03:00 0,7 C 79 % 1020,8 hPa 0,0 l/m N-NO 4,8 km/h (1 Bft)
11.04.2010 04:00 0,0 C 82 % 1020,5 hPa 0,0 l/m N 4,0 km/h (1 Bft)
11.04.2010 05:00 0,2 C 82 % 1020,1 hPa 0,0 l/m N 4,4 km/h (1 Bft)
11.04.2010 06:00 0,5 C 81 % 1019,8 hPa 0,0 l/m N 2,4 km/h (1 Bft)
11.04.2010 07:00 0,5 C 83 % 1019,8 hPa 0,0 l/m N 3,5 km/h (1 Bft)
11.04.2010 08:00 1,7 C 81 % 1019,4 hPa 0,0 l/m NO 5,9 km/h (2 Bft)
11.04.2010 09:00 3,0 C 79 % 1019,1 hPa 0,0 l/m NO 16,2 km/h (3 Bft)
11.04.2010 10:00 3,3 C 80 % 1018,9 hPa 0,0 l/m NO 12,8 km/h (3 Bft)
11.04.2010 11:00 3,2 C 85 % 1018,6 hPa 0,0 l/m N-NO 14,4 km/h (3 Bft)
11.04.2010 12:00 5,6 C 76 % 1018,1 hPa 0,0 l/m NO 20,0 km/h (4 Bft)
11.04.2010 13:00 7,4 C 63 % 1017,5 hPa 0,0 l/m NO 19,6 km/h (3 Bft)
11.04.2010 14:00 8,2 C 55 % 1016,8 hPa 0,0 l/m O-NO 18,5 km/h (3 Bft)
11.04.2010 15:00 8,3 C 54 % 1016,0 hPa 0,0 l/m O-NO 19,4 km/h (3 Bft)
11.04.2010 16:00 7,9 C 52 % 1015,7 hPa 0,0 l/m O 21,4 km/h (4 Bft)
11.04.2010 17:00 6,7 C 65 % 1016,0 hPa 0,2 l/m NO 23,1 km/h (4 Bft)
11.04.2010 18:00 6,1 C 69 % 1016,2 hPa 0,0 l/m O-NO 24,1 km/h (4 Bft)
11.04.2010 19:00 5,3 C 69 % 1016,2 hPa 0,0 l/m NO 19,6 km/h (3 Bft)
11.04.2010 20:00 3,9 C 81 % 1016,7 hPa 0,2 l/m O-NO 15,3 km/h (3 Bft)
11.04.2010 21:00 3,2 C 84 % 1017,0 hPa 0,2 l/m N-NO 16,5 km/h (3 Bft)
11.04.2010 22:00 2,4 C 87 % 1017,2 hPa 0,0 l/m N-NO 11,7 km/h (2 Bft)
11.04.2010 23:00 2,0 C 89 % 1017,1 hPa 0,0 l/m NO 14,1 km/h (3 Bft)
Min-Datum _ 06.04.10 07.04.10 07.04.10 - - 05.04.10
_ Min-Zeit 06:50 16:50 17:55 - - 04:05
Minimum _ -1,6 C 29 % 1015,5 hPa - - 0,0 km/h (0 Bft)
Max-Datum _ 07.04.10 06.04.10 09.04.10 11.04.10 - 11.04.10
_ Max-Zeit 16:45 05:35 22:05 17:40 - 17:10
Maximum _ 20,1 C 94 % 1028,8 hPa 0,2 l/m - 37,0 km/h
O-NO (5 Bft)
Durchschnitt _ 7,6 C 70 % 1022,6 hPa #0,6 l/m NO 8,8 km/h (2 Bft)